Aérodrome :
LOGIN :

S'inscrire | Disclaimer

   EN    FR    IT 

 










Légende :    VFR   VFR Marginal   IFR   IFR Intensif   IFR Très Intensif
Visi : 
Plafond : 
>= 8 km
>= 3000ft
5 à 8 km
1000 à 3000 ft
1500m à 5 km
500 à 1000 ft
800 à 1500m
200 à 500 ft
< 800m
< 200 ft
Symboles :   Orages  Brouillard  Fortes neiges  Fortes précipitations  Vent > 20 kt
SIGMETs :   Divers  Orages  Givrage  Turbulence  Onde Orograph.  Cendres Volcan.






- Altitude de l'aérodrome : 1020 ft
- Code IATA : ILZ


LZZI - Žilina

DERNIER METAR :
  • 051800Z 26012KT 9999 SCT015 M03/M05 Q1025

METARs EXPIRÉS :
  • 051730Z 25013KT 9999 SCT015 M03/M05 Q1025
  • 051700Z 26011KT 9999 SCT015 M03/M05 Q1025
  • 051630Z 25010KT 9999 FEW015 M02/M05 Q1025
  • 051600Z 26009KT 9999 FEW016 M02/M05 Q1025
  • 051530Z 26010KT 9999 FEW028 M02/M05 Q1025

TAF COR TAF LZZI
Valide du 05 à 18h jusqu'au 06 à 03h UTC


051759Z 0518/0603 26012KT 7000 SCT012
BECMG 0519/0521 26004KT
TEMPO 0518/0521 4000 BR BKN009
TEMPO 0521/0603 2200 BR OVC005



MET'MAP, la Météo Aéronautique d'un coup d'oeil ! - Copyright ORBIFLY Décembre 2007 - Disclaimer

ORBIFLY MET'MAP TEAM :

Programmation & Développement : Alexandra Zaïnal
Sur une idée originale de : Baudouin d'Aumeries
Assistance à la programmation : Marc-Olivier Méhu
Soutien technique & logistique : Manuel Goepfert

Contact : metmap@orbifly.com




SOURCES & CREDITS :

   NOAA